sensor_id;sensor_type;location;lat;lon;timestamp;temperature;humidity
63202;DHT22;49296;48.188;11.566;2023-04-15T00:02:17;6.99;78.96
63202;DHT22;49296;48.188;11.566;2023-04-15T00:04:44;7.10;78.61
63202;DHT22;49296;48.188;11.566;2023-04-15T00:07:11;7.27;78.07
63202;DHT22;49296;48.188;11.566;2023-04-15T00:09:38;7.36;78.09
63202;DHT22;49296;48.188;11.566;2023-04-15T00:12:05;7.16;78.08
63202;DHT22;49296;48.188;11.566;2023-04-15T00:14:33;7.30;78.35
63202;DHT22;49296;48.188;11.566;2023-04-15T00:17:00;7.15;78.46
63202;DHT22;49296;48.188;11.566;2023-04-15T00:19:28;7.15;78.64
63202;DHT22;49296;48.188;11.566;2023-04-15T00:21:55;7.20;78.29
63202;DHT22;49296;48.188;11.566;2023-04-15T00:24:22;7.38;77.99
63202;DHT22;49296;48.188;11.566;2023-04-15T00:26:49;7.28;77.75
63202;DHT22;49296;48.188;11.566;2023-04-15T00:29:15;7.24;78.04
63202;DHT22;49296;48.188;11.566;2023-04-15T00:31:42;7.09;78.29
63202;DHT22;49296;48.188;11.566;2023-04-15T00:34:10;7.13;78.69
63202;DHT22;49296;48.188;11.566;2023-04-15T00:36:38;7.16;78.49
63202;DHT22;49296;48.188;11.566;2023-04-15T00:39:05;7.36;78.17
63202;DHT22;49296;48.188;11.566;2023-04-15T00:41:31;7.23;77.92
63202;DHT22;49296;48.188;11.566;2023-04-15T00:43:59;6.88;79.24
63202;DHT22;49296;48.188;11.566;2023-04-15T00:46:27;6.88;79.16
63202;DHT22;49296;48.188;11.566;2023-04-15T00:48:55;7.03;78.88
63202;DHT22;49296;48.188;11.566;2023-04-15T00:51:22;6.85;79.10
63202;DHT22;49296;48.188;11.566;2023-04-15T00:53:50;6.93;79.22
63202;DHT22;49296;48.188;11.566;2023-04-15T00:56:19;6.93;78.96
63202;DHT22;49296;48.188;11.566;2023-04-15T00:58:48;7.15;78.70
63202;DHT22;49296;48.188;11.566;2023-04-15T01:01:17;7.27;78.30
63202;DHT22;49296;48.188;11.566;2023-04-15T01:03:46;7.26;78.17
63202;DHT22;49296;48.188;11.566;2023-04-15T01:06:13;7.15;78.28
63202;DHT22;49296;48.188;11.566;2023-04-15T01:08:40;7.12;78.36
63202;DHT22;49296;48.188;11.566;2023-04-15T01:11:09;7.13;78.57
63202;DHT22;49296;48.188;11.566;2023-04-15T01:13:38;6.91;79.04
63202;DHT22;49296;48.188;11.566;2023-04-15T01:16:05;6.96;79.21
63202;DHT22;49296;48.188;11.566;2023-04-15T01:18:33;7.05;78.89
63202;DHT22;49296;48.188;11.566;2023-04-15T01:21:00;7.24;78.56
63202;DHT22;49296;48.188;11.566;2023-04-15T01:23:28;7.31;78.21
63202;DHT22;49296;48.188;11.566;2023-04-15T01:25:56;7.46;77.55
63202;DHT22;49296;48.188;11.566;2023-04-15T01:28:24;7.28;77.77
63202;DHT22;49296;48.188;11.566;2023-04-15T01:31:05;7.42;77.62
63202;DHT22;49296;48.188;11.566;2023-04-15T01:33:32;7.27;77.82
63202;DHT22;49296;48.188;11.566;2023-04-15T01:35:59;7.20;78.10
63202;DHT22;49296;48.188;11.566;2023-04-15T01:38:26;7.06;78.57
63202;DHT22;49296;48.188;11.566;2023-04-15T01:40:53;7.02;78.71
63202;DHT22;49296;48.188;11.566;2023-04-15T01:43:21;6.92;78.88
63202;DHT22;49296;48.188;11.566;2023-04-15T01:45:48;7.13;78.47
63202;DHT22;49296;48.188;11.566;2023-04-15T01:48:15;7.23;77.95
63202;DHT22;49296;48.188;11.566;2023-04-15T01:50:42;7.24;77.68
63202;DHT22;49296;48.188;11.566;2023-04-15T01:53:09;7.03;78.21
63202;DHT22;49296;48.188;11.566;2023-04-15T01:55:36;7.09;78.04
63202;DHT22;49296;48.188;11.566;2023-04-15T01:58:02;7.12;77.90
63202;DHT22;49296;48.188;11.566;2023-04-15T02:00:31;7.13;77.81
63202;DHT22;49296;48.188;11.566;2023-04-15T02:02:57;7.23;77.50
63202;DHT22;49296;48.188;11.566;2023-04-15T02:05:24;7.30;77.32
63202;DHT22;49296;48.188;11.566;2023-04-15T02:07:52;7.34;77.18
63202;DHT22;49296;48.188;11.566;2023-04-15T02:10:19;7.09;77.41
63202;DHT22;49296;48.188;11.566;2023-04-15T02:12:46;6.85;77.93
63202;DHT22;49296;48.188;11.566;2023-04-15T02:15:12;6.92;78.20
63202;DHT22;49296;48.188;11.566;2023-04-15T02:17:41;6.89;78.12
63202;DHT22;49296;48.188;11.566;2023-04-15T02:20:10;6.78;78.52
63202;DHT22;49296;48.188;11.566;2023-04-15T02:22:37;6.75;78.50
63202;DHT22;49296;48.188;11.566;2023-04-15T02:25:05;6.74;78.71
63202;DHT22;49296;48.188;11.566;2023-04-15T02:27:32;6.77;78.44
63202;DHT22;49296;48.188;11.566;2023-04-15T02:29:59;6.64;78.78
63202;DHT22;49296;48.188;11.566;2023-04-15T02:32:26;6.68;78.90
63202;DHT22;49296;48.188;11.566;2023-04-15T02:34:54;6.47;79.49
63202;DHT22;49296;48.188;11.566;2023-04-15T02:37:21;6.61;79.47
63202;DHT22;49296;48.188;11.566;2023-04-15T02:39:49;6.75;79.05
63202;DHT22;49296;48.188;11.566;2023-04-15T02:42:15;6.71;78.62
63202;DHT22;49296;48.188;11.566;2023-04-15T02:44:43;6.61;78.70
63202;DHT22;49296;48.188;11.566;2023-04-15T02:47:09;6.57;79.00
63202;DHT22;49296;48.188;11.566;2023-04-15T02:49:37;6.58;78.88
63202;DHT22;49296;48.188;11.566;2023-04-15T02:52:06;6.71;78.66
63202;DHT22;49296;48.188;11.566;2023-04-15T02:54:32;6.91;78.31
63202;DHT22;49296;48.188;11.566;2023-04-15T02:56:59;6.84;78.28
63202;DHT22;49296;48.188;11.566;2023-04-15T02:59:26;6.80;78.20
63202;DHT22;49296;48.188;11.566;2023-04-15T03:01:53;6.77;78.17
63202;DHT22;49296;48.188;11.566;2023-04-15T03:04:21;6.89;78.01
63202;DHT22;49296;48.188;11.566;2023-04-15T03:06:47;6.82;77.80
63202;DHT22;49296;48.188;11.566;2023-04-15T03:09:15;6.87;77.86
63202;DHT22;49296;48.188;11.566;2023-04-15T03:11:42;6.77;77.99
63202;DHT22;49296;48.188;11.566;2023-04-15T03:14:09;6.75;77.94
63202;DHT22;49296;48.188;11.566;2023-04-15T03:16:36;6.67;78.13
63202;DHT22;49296;48.188;11.566;2023-04-15T03:19:03;6.71;77.89
63202;DHT22;49296;48.188;11.566;2023-04-15T03:21:30;6.91;77.97
63202;DHT22;49296;48.188;11.566;2023-04-15T03:23:56;6.68;78.14
63202;DHT22;49296;48.188;11.566;2023-04-15T03:26:26;6.85;77.68
63202;DHT22;49296;48.188;11.566;2023-04-15T03:28:53;6.89;77.66
63202;DHT22;49296;48.188;11.566;2023-04-15T03:31:20;6.99;77.78
63202;DHT22;49296;48.188;11.566;2023-04-15T03:33:47;7.05;77.26
63202;DHT22;49296;48.188;11.566;2023-04-15T03:36:14;7.19;77.11
63202;DHT22;49296;48.188;11.566;2023-04-15T03:38:41;7.08;77.20
63202;DHT22;49296;48.188;11.566;2023-04-15T03:41:08;7.12;77.29
63202;DHT22;49296;48.188;11.566;2023-04-15T03:43:36;7.13;77.05
63202;DHT22;49296;48.188;11.566;2023-04-15T03:46:03;7.09;77.23
63202;DHT22;49296;48.188;11.566;2023-04-15T03:48:31;6.91;77.74
63202;DHT22;49296;48.188;11.566;2023-04-15T03:50:57;6.65;78.43
63202;DHT22;49296;48.188;11.566;2023-04-15T03:53:24;6.72;78.30
63202;DHT22;49296;48.188;11.566;2023-04-15T03:55:51;6.70;78.42
63202;DHT22;49296;48.188;11.566;2023-04-15T03:58:18;6.65;78.54
63202;DHT22;49296;48.188;11.566;2023-04-15T04:00:46;6.64;78.54
63202;DHT22;49296;48.188;11.566;2023-04-15T04:03:13;6.87;78.06
63202;DHT22;49296;48.188;11.566;2023-04-15T04:05:40;6.81;77.77
63202;DHT22;49296;48.188;11.566;2023-04-15T04:08:08;6.67;77.87
63202;DHT22;49296;48.188;11.566;2023-04-15T04:10:38;6.81;77.92
63202;DHT22;49296;48.188;11.566;2023-04-15T04:13:05;6.87;77.79
63202;DHT22;49296;48.188;11.566;2023-04-15T04:15:32;6.65;78.13
63202;DHT22;49296;48.188;11.566;2023-04-15T04:18:00;6.57;78.24
63202;DHT22;49296;48.188;11.566;2023-04-15T04:20:27;6.70;78.35
63202;DHT22;49296;48.188;11.566;2023-04-15T04:22:56;6.82;78.22
63202;DHT22;49296;48.188;11.566;2023-04-15T04:25:23;6.91;78.07
63202;DHT22;49296;48.188;11.566;2023-04-15T04:27:50;6.99;77.11
63202;DHT22;49296;48.188;11.566;2023-04-15T04:30:17;6.96;76.60
63202;DHT22;49296;48.188;11.566;2023-04-15T04:32:44;6.74;77.21
63202;DHT22;49296;48.188;11.566;2023-04-15T04:35:12;6.88;76.99
63202;DHT22;49296;48.188;11.566;2023-04-15T04:37:39;6.96;76.39
63202;DHT22;49296;48.188;11.566;2023-04-15T04:40:07;6.91;76.72
63202;DHT22;49296;48.188;11.566;2023-04-15T04:42:35;6.81;76.77
63202;DHT22;49296;48.188;11.566;2023-04-15T04:45:02;6.87;76.96
63202;DHT22;49296;48.188;11.566;2023-04-15T04:47:29;7.05;76.14
63202;DHT22;49296;48.188;11.566;2023-04-15T04:49:55;6.77;76.68
63202;DHT22;49296;48.188;11.566;2023-04-15T04:52:24;6.55;77.36
63202;DHT22;49296;48.188;11.566;2023-04-15T04:54:51;6.78;76.90
63202;DHT22;49296;48.188;11.566;2023-04-15T04:57:17;6.72;76.64
63202;DHT22;49296;48.188;11.566;2023-04-15T04:59:44;6.85;76.44
63202;DHT22;49296;48.188;11.566;2023-04-15T05:02:11;6.89;76.06
63202;DHT22;49296;48.188;11.566;2023-04-15T05:04:38;6.88;75.96
63202;DHT22;49296;48.188;11.566;2023-04-15T05:07:06;6.84;76.02
63202;DHT22;49296;48.188;11.566;2023-04-15T05:09:34;6.70;76.17
63202;DHT22;49296;48.188;11.566;2023-04-15T05:12:01;6.68;76.24
63202;DHT22;49296;48.188;11.566;2023-04-15T05:14:28;6.63;76.26
63202;DHT22;49296;48.188;11.566;2023-04-15T05:16:55;6.58;76.35
63202;DHT22;49296;48.188;11.566;2023-04-15T05:19:22;6.60;76.23
63202;DHT22;49296;48.188;11.566;2023-04-15T05:21:49;6.41;76.27
63202;DHT22;49296;48.188;11.566;2023-04-15T05:24:16;6.23;76.68
63202;DHT22;49296;48.188;11.566;2023-04-15T05:26:44;6.39;76.46
63202;DHT22;49296;48.188;11.566;2023-04-15T05:29:10;6.43;76.13
63202;DHT22;49296;48.188;11.566;2023-04-15T05:31:37;6.63;75.63
63202;DHT22;49296;48.188;11.566;2023-04-15T05:34:04;6.63;75.58
63202;DHT22;49296;48.188;11.566;2023-04-15T05:36:31;6.65;75.39
63202;DHT22;49296;48.188;11.566;2023-04-15T05:38:58;6.61;75.38
63202;DHT22;49296;48.188;11.566;2023-04-15T05:41:25;6.58;75.51
63202;DHT22;49296;48.188;11.566;2023-04-15T05:43:53;6.51;75.56
63202;DHT22;49296;48.188;11.566;2023-04-15T05:46:20;6.47;75.47
63202;DHT22;49296;48.188;11.566;2023-04-15T05:48:47;6.41;75.15
63202;DHT22;49296;48.188;11.566;2023-04-15T05:51:14;6.51;74.99
63202;DHT22;49296;48.188;11.566;2023-04-15T05:53:41;6.43;74.64
63202;DHT22;49296;48.188;11.566;2023-04-15T05:56:08;6.34;74.25
63202;DHT22;49296;48.188;11.566;2023-04-15T05:58:35;6.54;74.36
63202;DHT22;49296;48.188;11.566;2023-04-15T06:01:03;6.58;74.28
63202;DHT22;49296;48.188;11.566;2023-04-15T06:03:30;6.54;73.66
63202;DHT22;49296;48.188;11.566;2023-04-15T06:05:56;6.54;73.81
63202;DHT22;49296;48.188;11.566;2023-04-15T06:08:23;6.48;73.52
63202;DHT22;49296;48.188;11.566;2023-04-15T06:10:50;6.60;72.85
63202;DHT22;49296;48.188;11.566;2023-04-15T06:13:17;6.48;72.60
63202;DHT22;49296;48.188;11.566;2023-04-15T06:15:44;6.50;72.25
63202;DHT22;49296;48.188;11.566;2023-04-15T06:18:12;6.50;72.77
63202;DHT22;49296;48.188;11.566;2023-04-15T06:20:39;6.53;72.15
63202;DHT22;49296;48.188;11.566;2023-04-15T06:23:06;6.50;72.17
63202;DHT22;49296;48.188;11.566;2023-04-15T06:25:32;6.77;72.12
63202;DHT22;49296;48.188;11.566;2023-04-15T06:27:59;6.78;71.52
63202;DHT22;49296;48.188;11.566;2023-04-15T06:30:26;7.00;71.50
63202;DHT22;49296;48.188;11.566;2023-04-15T06:32:54;6.95;70.29
63202;DHT22;49296;48.188;11.566;2023-04-15T06:35:22;7.05;70.52
63202;DHT22;49296;48.188;11.566;2023-04-15T06:37:49;6.98;69.98
63202;DHT22;49296;48.188;11.566;2023-04-15T06:40:16;7.02;70.05
63202;DHT22;49296;48.188;11.566;2023-04-15T06:42:43;6.95;70.24
63202;DHT22;49296;48.188;11.566;2023-04-15T06:45:10;7.02;70.07
63202;DHT22;49296;48.188;11.566;2023-04-15T06:47:37;7.15;70.17
63202;DHT22;49296;48.188;11.566;2023-04-15T06:50:04;7.06;69.99
63202;DHT22;49296;48.188;11.566;2023-04-15T06:52:33;7.26;69.73
63202;DHT22;49296;48.188;11.566;2023-04-15T06:55:00;7.17;69.29
63202;DHT22;49296;48.188;11.566;2023-04-15T06:57:27;7.08;69.97
63202;DHT22;49296;48.188;11.566;2023-04-15T06:59:54;7.16;69.31
63202;DHT22;49296;48.188;11.566;2023-04-15T07:02:21;7.19;68.87
63202;DHT22;49296;48.188;11.566;2023-04-15T07:04:48;7.30;69.09
63202;DHT22;49296;48.188;11.566;2023-04-15T07:07:15;7.23;69.19
63202;DHT22;49296;48.188;11.566;2023-04-15T07:09:44;7.22;68.75
63202;DHT22;49296;48.188;11.566;2023-04-15T07:12:11;7.31;69.14
63202;DHT22;49296;48.188;11.566;2023-04-15T07:14:38;7.50;68.96
63202;DHT22;49296;48.188;11.566;2023-04-15T07:17:05;7.44;68.84
63202;DHT22;49296;48.188;11.566;2023-04-15T07:19:32;7.61;68.37
63202;DHT22;49296;48.188;11.566;2023-04-15T07:21:59;7.50;68.17
63202;DHT22;49296;48.188;11.566;2023-04-15T07:24:26;7.67;67.95
63202;DHT22;49296;48.188;11.566;2023-04-15T07:26:54;7.75;67.98
63202;DHT22;49296;48.188;11.566;2023-04-15T07:29:22;7.62;66.41
63202;DHT22;49296;48.188;11.566;2023-04-15T07:31:49;7.67;67.20
63202;DHT22;49296;48.188;11.566;2023-04-15T07:34:18;7.61;66.57
63202;DHT22;49296;48.188;11.566;2023-04-15T07:36:45;7.60;66.22
63202;DHT22;49296;48.188;11.566;2023-04-15T07:39:14;7.58;66.62
63202;DHT22;49296;48.188;11.566;2023-04-15T07:41:42;7.61;66.05
63202;DHT22;49296;48.188;11.566;2023-04-15T07:44:10;7.68;66.64
63202;DHT22;49296;48.188;11.566;2023-04-15T07:46:37;7.74;66.89
63202;DHT22;49296;48.188;11.566;2023-04-15T07:49:04;7.86;65.75
63202;DHT22;49296;48.188;11.566;2023-04-15T07:51:31;7.89;65.73
63202;DHT22;49296;48.188;11.566;2023-04-15T07:53:58;8.03;65.51
63202;DHT22;49296;48.188;11.566;2023-04-15T07:56:25;8.24;65.39
63202;DHT22;49296;48.188;11.566;2023-04-15T07:58:52;8.47;65.35
63202;DHT22;49296;48.188;11.566;2023-04-15T08:01:20;8.52;65.24
63202;DHT22;49296;48.188;11.566;2023-04-15T08:03:47;8.67;65.67
63202;DHT22;49296;48.188;11.566;2023-04-15T08:06:14;8.64;64.71
63202;DHT22;49296;48.188;11.566;2023-04-15T08:08:41;8.51;64.61
63202;DHT22;49296;48.188;11.566;2023-04-15T08:11:08;8.61;65.17
63202;DHT22;49296;48.188;11.566;2023-04-15T08:13:35;8.45;65.30
63202;DHT22;49296;48.188;11.566;2023-04-15T08:16:15;8.62;64.83
63202;DHT22;49296;48.188;11.566;2023-04-15T08:18:44;8.73;64.84
63202;DHT22;49296;48.188;11.566;2023-04-15T08:21:10;8.59;64.95
63202;DHT22;49296;48.188;11.566;2023-04-15T08:23:37;8.59;64.81
63202;DHT22;49296;48.188;11.566;2023-04-15T08:26:04;8.48;64.57
63202;DHT22;49296;48.188;11.566;2023-04-15T08:28:32;8.72;64.99
63202;DHT22;49296;48.188;11.566;2023-04-15T08:30:58;8.75;64.20
63202;DHT22;49296;48.188;11.566;2023-04-15T08:33:25;8.71;64.77
63202;DHT22;49296;48.188;11.566;2023-04-15T08:35:54;8.92;64.12
63202;DHT22;49296;48.188;11.566;2023-04-15T08:38:22;8.86;64.21
63202;DHT22;49296;48.188;11.566;2023-04-15T08:40:49;8.99;64.10
63202;DHT22;49296;48.188;11.566;2023-04-15T08:43:20;9.03;64.04
63202;DHT22;49296;48.188;11.566;2023-04-15T08:45:49;9.07;63.61
63202;DHT22;49296;48.188;11.566;2023-04-15T08:48:17;9.03;63.78
63202;DHT22;49296;48.188;11.566;2023-04-15T08:50:46;9.09;63.55
63202;DHT22;49296;48.188;11.566;2023-04-15T08:53:14;9.11;63.84
63202;DHT22;49296;48.188;11.566;2023-04-15T08:55:45;8.95;64.32
63202;DHT22;49296;48.188;11.566;2023-04-15T08:58:12;8.86;64.22
63202;DHT22;49296;48.188;11.566;2023-04-15T09:00:41;8.86;64.18
63202;DHT22;49296;48.188;11.566;2023-04-15T09:03:08;8.96;64.78
63202;DHT22;49296;48.188;11.566;2023-04-15T09:05:36;8.99;64.33
63202;DHT22;49296;48.188;11.566;2023-04-15T09:08:04;8.97;64.83
63202;DHT22;49296;48.188;11.566;2023-04-15T09:10:32;9.13;64.24
63202;DHT22;49296;48.188;11.566;2023-04-15T09:12:59;9.20;64.18
63202;DHT22;49296;48.188;11.566;2023-04-15T09:15:27;9.31;64.34
63202;DHT22;49296;48.188;11.566;2023-04-15T09:17:55;9.39;63.89
63202;DHT22;49296;48.188;11.566;2023-04-15T09:20:22;9.35;63.67
63202;DHT22;49296;48.188;11.566;2023-04-15T09:22:49;9.47;63.49
63202;DHT22;49296;48.188;11.566;2023-04-15T09:25:28;9.37;63.48
63202;DHT22;49296;48.188;11.566;2023-04-15T09:27:57;9.32;63.46
63202;DHT22;49296;48.188;11.566;2023-04-15T09:30:24;9.21;63.60
63202;DHT22;49296;48.188;11.566;2023-04-15T09:32:54;9.24;63.62
63202;DHT22;49296;48.188;11.566;2023-04-15T09:35:22;9.44;63.88
63202;DHT22;49296;48.188;11.566;2023-04-15T09:37:50;9.54;63.97
63202;DHT22;49296;48.188;11.566;2023-04-15T09:40:30;9.44;64.04
63202;DHT22;49296;48.188;11.566;2023-04-15T09:42:59;9.34;64.30
63202;DHT22;49296;48.188;11.566;2023-04-15T09:45:27;9.37;63.88
63202;DHT22;49296;48.188;11.566;2023-04-15T09:47:56;9.34;64.36
63202;DHT22;49296;48.188;11.566;2023-04-15T09:50:26;9.31;64.43
63202;DHT22;49296;48.188;11.566;2023-04-15T09:52:53;9.27;64.20
63202;DHT22;49296;48.188;11.566;2023-04-15T09:55:20;9.20;64.56
63202;DHT22;49296;48.188;11.566;2023-04-15T09:57:48;9.34;64.74
63202;DHT22;49296;48.188;11.566;2023-04-15T10:00:16;9.37;64.17
63202;DHT22;49296;48.188;11.566;2023-04-15T10:02:43;9.35;64.50
63202;DHT22;49296;48.188;11.566;2023-04-15T10:05:13;9.37;64.04
63202;DHT22;49296;48.188;11.566;2023-04-15T10:07:41;9.37;64.42
63202;DHT22;49296;48.188;11.566;2023-04-15T10:10:08;9.26;63.72
63202;DHT22;49296;48.188;11.566;2023-04-15T10:12:37;9.41;64.31
63202;DHT22;49296;48.188;11.566;2023-04-15T10:15:05;9.38;64.08
63202;DHT22;49296;48.188;11.566;2023-04-15T10:17:35;9.39;63.79
63202;DHT22;49296;48.188;11.566;2023-04-15T10:20:03;9.31;63.43
63202;DHT22;49296;48.188;11.566;2023-04-15T10:22:31;9.37;63.70
63202;DHT22;49296;48.188;11.566;2023-04-15T10:24:58;9.39;63.36
63202;DHT22;49296;48.188;11.566;2023-04-15T10:27:26;9.42;63.54
63202;DHT22;49296;48.188;11.566;2023-04-15T10:29:53;9.27;63.74
63202;DHT22;49296;48.188;11.566;2023-04-15T10:32:21;9.37;64.12
63202;DHT22;49296;48.188;11.566;2023-04-15T10:34:51;9.34;63.51
63202;DHT22;49296;48.188;11.566;2023-04-15T10:37:20;9.42;63.40
63202;DHT22;49296;48.188;11.566;2023-04-15T10:39:47;9.42;63.41
63202;DHT22;49296;48.188;11.566;2023-04-15T10:42:16;9.42;63.68
63202;DHT22;49296;48.188;11.566;2023-04-15T10:44:45;9.61;63.95
63202;DHT22;49296;48.188;11.566;2023-04-15T10:47:15;9.48;63.33
63202;DHT22;49296;48.188;11.566;2023-04-15T10:49:46;9.61;63.12
63202;DHT22;49296;48.188;11.566;2023-04-15T10:52:17;9.68;62.89
63202;DHT22;49296;48.188;11.566;2023-04-15T10:54:44;9.69;62.68
63202;DHT22;49296;48.188;11.566;2023-04-15T10:57:16;9.66;62.82
63202;DHT22;49296;48.188;11.566;2023-04-15T11:00:01;9.59;63.11
63202;DHT22;49296;48.188;11.566;2023-04-15T11:02:41;9.68;63.20
63202;DHT22;49296;48.188;11.566;2023-04-15T11:05:09;9.61;62.35
63202;DHT22;49296;48.188;11.566;2023-04-15T11:07:39;9.58;62.45
63202;DHT22;49296;48.188;11.566;2023-04-15T11:13:16;9.59;63.45
63202;DHT22;49296;48.188;11.566;2023-04-15T11:15:44;9.56;63.49
63202;DHT22;49296;48.188;11.566;2023-04-15T11:18:12;9.73;63.48
63202;DHT22;49296;48.188;11.566;2023-04-15T11:20:40;9.73;62.61
63202;DHT22;49296;48.188;11.566;2023-04-15T11:23:11;9.79;62.65
63202;DHT22;49296;48.188;11.566;2023-04-15T11:25:38;9.72;62.59
63202;DHT22;49296;48.188;11.566;2023-04-15T11:28:05;9.76;62.62
63202;DHT22;49296;48.188;11.566;2023-04-15T11:30:33;9.79;62.45
63202;DHT22;49296;48.188;11.566;2023-04-15T11:33:02;9.76;62.45
63202;DHT22;49296;48.188;11.566;2023-04-15T11:35:29;9.81;62.94
63202;DHT22;49296;48.188;11.566;2023-04-15T11:37:57;9.83;62.62
63202;DHT22;49296;48.188;11.566;2023-04-15T11:40:27;9.69;62.43
63202;DHT22;49296;48.188;11.566;2023-04-15T11:43:03;9.61;62.54
63202;DHT22;49296;48.188;11.566;2023-04-15T11:45:30;9.63;62.50
63202;DHT22;49296;48.188;11.566;2023-04-15T11:48:05;9.58;62.60
63202;DHT22;49296;48.188;11.566;2023-04-15T11:50:32;9.71;62.68
63202;DHT22;49296;48.188;11.566;2023-04-15T11:53:00;9.63;63.31
63202;DHT22;49296;48.188;11.566;2023-04-15T11:55:29;9.65;63.44
63202;DHT22;49296;48.188;11.566;2023-04-15T11:58:07;9.59;63.18
63202;DHT22;49296;48.188;11.566;2023-04-15T12:00:35;9.82;63.03
63202;DHT22;49296;48.188;11.566;2023-04-15T12:03:23;9.75;62.78
63202;DHT22;49296;48.188;11.566;2023-04-15T12:06:14;9.72;62.69
63202;DHT22;49296;48.188;11.566;2023-04-15T12:09:09;9.73;62.93
63202;DHT22;49296;48.188;11.566;2023-04-15T12:11:43;9.79;62.44
63202;DHT22;49296;48.188;11.566;2023-04-15T12:14:21;9.76;62.17
63202;DHT22;49296;48.188;11.566;2023-04-15T12:16:50;9.82;62.31
63202;DHT22;49296;48.188;11.566;2023-04-15T12:19:22;9.72;60.27
63202;DHT22;49296;48.188;11.566;2023-04-15T12:21:50;9.81;59.58
63202;DHT22;49296;48.188;11.566;2023-04-15T12:24:20;9.85;59.75
63202;DHT22;49296;48.188;11.566;2023-04-15T12:26:49;9.94;59.47
63202;DHT22;49296;48.188;11.566;2023-04-15T12:29:16;10.10;59.84
63202;DHT22;49296;48.188;11.566;2023-04-15T12:31:48;10.00;58.33
63202;DHT22;49296;48.188;11.566;2023-04-15T12:34:16;10.00;58.45
63202;DHT22;49296;48.188;11.566;2023-04-15T12:36:44;9.86;57.18
63202;DHT22;49296;48.188;11.566;2023-04-15T12:39:11;9.81;56.13
63202;DHT22;49296;48.188;11.566;2023-04-15T12:41:38;9.66;55.54
63202;DHT22;49296;48.188;11.566;2023-04-15T12:44:07;9.71;55.91
63202;DHT22;49296;48.188;11.566;2023-04-15T12:46:34;9.69;54.15
63202;DHT22;49296;48.188;11.566;2023-04-15T12:49:00;9.68;53.90
63202;DHT22;49296;48.188;11.566;2023-04-15T12:51:28;9.62;54.96
63202;DHT22;49296;48.188;11.566;2023-04-15T12:53:56;9.68;55.69
63202;DHT22;49296;48.188;11.566;2023-04-15T12:56:23;9.63;55.36
63202;DHT22;49296;48.188;11.566;2023-04-15T12:58:50;9.69;55.16
63202;DHT22;49296;48.188;11.566;2023-04-15T13:01:18;9.72;55.44
63202;DHT22;49296;48.188;11.566;2023-04-15T13:03:45;9.61;55.63
63202;DHT22;49296;48.188;11.566;2023-04-15T13:06:12;9.66;56.63
63202;DHT22;49296;48.188;11.566;2023-04-15T13:08:39;9.47;56.44
63202;DHT22;49296;48.188;11.566;2023-04-15T13:11:05;9.41;57.35
63202;DHT22;49296;48.188;11.566;2023-04-15T13:13:32;9.35;57.81
63202;DHT22;49296;48.188;11.566;2023-04-15T13:15:59;9.49;58.07
63202;DHT22;49296;48.188;11.566;2023-04-15T13:18:27;9.55;58.34
63202;DHT22;49296;48.188;11.566;2023-04-15T13:20:55;9.51;58.35
63202;DHT22;49296;48.188;11.566;2023-04-15T13:23:22;9.49;58.86
63202;DHT22;49296;48.188;11.566;2023-04-15T13:25:48;9.54;58.87
63202;DHT22;49296;48.188;11.566;2023-04-15T13:28:15;9.56;58.74
63202;DHT22;49296;48.188;11.566;2023-04-15T13:30:42;9.62;59.04
63202;DHT22;49296;48.188;11.566;2023-04-15T13:33:10;9.79;59.42
63202;DHT22;49296;48.188;11.566;2023-04-15T13:35:38;9.75;59.32
63202;DHT22;49296;48.188;11.566;2023-04-15T13:38:05;9.65;58.73
63202;DHT22;49296;48.188;11.566;2023-04-15T13:40:31;9.51;59.13
63202;DHT22;49296;48.188;11.566;2023-04-15T13:42:58;9.52;60.26
63202;DHT22;49296;48.188;11.566;2023-04-15T13:45:25;9.48;61.43
63202;DHT22;49296;48.188;11.566;2023-04-15T13:47:52;9.58;61.80
63202;DHT22;49296;48.188;11.566;2023-04-15T13:50:19;9.65;61.30
63202;DHT22;49296;48.188;11.566;2023-04-15T13:52:47;9.59;61.39
63202;DHT22;49296;48.188;11.566;2023-04-15T13:55:13;9.55;62.14
63202;DHT22;49296;48.188;11.566;2023-04-15T13:57:40;9.45;62.32
63202;DHT22;49296;48.188;11.566;2023-04-15T14:00:08;9.28;62.66
63202;DHT22;49296;48.188;11.566;2023-04-15T14:02:35;9.35;62.63
63202;DHT22;49296;48.188;11.566;2023-04-15T14:05:01;9.19;60.69
63202;DHT22;49296;48.188;11.566;2023-04-15T14:07:28;9.23;61.14
63202;DHT22;49296;48.188;11.566;2023-04-15T14:09:56;9.16;61.52
63202;DHT22;49296;48.188;11.566;2023-04-15T14:12:23;9.27;61.03
63202;DHT22;49296;48.188;11.566;2023-04-15T14:14:49;9.35;60.64
63202;DHT22;49296;48.188;11.566;2023-04-15T14:17:16;9.37;60.78
63202;DHT22;49296;48.188;11.566;2023-04-15T14:19:43;9.54;60.65
63202;DHT22;49296;48.188;11.566;2023-04-15T14:22:09;9.48;60.24
63202;DHT22;49296;48.188;11.566;2023-04-15T14:24:37;9.38;59.71
63202;DHT22;49296;48.188;11.566;2023-04-15T14:27:05;9.39;59.90
63202;DHT22;49296;48.188;11.566;2023-04-15T14:29:33;9.35;59.99
63202;DHT22;49296;48.188;11.566;2023-04-15T14:31:59;9.58;59.95
63202;DHT22;49296;48.188;11.566;2023-04-15T14:34:26;9.48;59.99
63202;DHT22;49296;48.188;11.566;2023-04-15T14:36:53;9.42;60.14
63202;DHT22;49296;48.188;11.566;2023-04-15T14:39:19;9.24;60.24
63202;DHT22;49296;48.188;11.566;2023-04-15T14:41:46;9.32;61.13
63202;DHT22;49296;48.188;11.566;2023-04-15T14:44:14;9.54;61.23
63202;DHT22;49296;48.188;11.566;2023-04-15T14:46:41;9.35;61.14
63202;DHT22;49296;48.188;11.566;2023-04-15T14:49:08;9.38;61.91
63202;DHT22;49296;48.188;11.566;2023-04-15T14:51:34;9.35;62.21
63202;DHT22;49296;48.188;11.566;2023-04-15T14:54:01;9.47;62.59
63202;DHT22;49296;48.188;11.566;2023-04-15T14:56:28;9.38;62.50
63202;DHT22;49296;48.188;11.566;2023-04-15T14:58:54;9.34;63.55
63202;DHT22;49296;48.188;11.566;2023-04-15T15:01:22;9.34;64.35
63202;DHT22;49296;48.188;11.566;2023-04-15T15:03:49;9.20;65.51
63202;DHT22;49296;48.188;11.566;2023-04-15T15:06:16;9.13;65.65
63202;DHT22;49296;48.188;11.566;2023-04-15T15:08:42;9.02;66.32
63202;DHT22;49296;48.188;11.566;2023-04-15T15:11:09;8.83;67.70
63202;DHT22;49296;48.188;11.566;2023-04-15T15:13:36;8.71;67.33
63202;DHT22;49296;48.188;11.566;2023-04-15T15:16:03;8.58;67.82
63202;DHT22;49296;48.188;11.566;2023-04-15T15:18:31;8.31;68.44
63202;DHT22;49296;48.188;11.566;2023-04-15T15:20:58;8.23;69.15
63202;DHT22;49296;48.188;11.566;2023-04-15T15:23:25;8.22;69.02
63202;DHT22;49296;48.188;11.566;2023-04-15T15:25:51;8.23;69.29
63202;DHT22;49296;48.188;11.566;2023-04-15T15:28:18;8.30;69.60
63202;DHT22;49296;48.188;11.566;2023-04-15T15:30:46;8.38;70.17
63202;DHT22;49296;48.188;11.566;2023-04-15T15:33:12;8.40;70.86
63202;DHT22;49296;48.188;11.566;2023-04-15T15:35:40;8.20;71.06
63202;DHT22;49296;48.188;11.566;2023-04-15T15:38:07;8.26;71.50